Online Now
Guests 2
Members   0

24/7 FSX Server
IP: 97.89.8.204
@ KORD until 1/18/19



Information and tools for flight simulation use only - NOT for real avaition

File Flight Plans Here

KORD 172051Z 31005KT 5SM HZ BKN014 OVC026 01/M02 A2998 RMK AO2 SLP161 T00111017 55016KORD 172049Z 1721/1824 26003KT 5SM HZ BKN012 OVC029 FM172200 30005KT P6SM SCT012 OVC025 FM181100 33006KT P6SM SCT015 BKN250 FM181500 02005KT P6SM BKN015 OVC180 FM182100 06010KT P6SM OVC015
Aviation Digital Data Service (ADDS)



Other FSX servers